sensor_id;sensor_type;location;lat;lon;timestamp;noise_LAeq;noise_LA_min;noise_LA_max;noise_LA01;noise_LA95
41704;Laerm;861;48.808;9.006;2023-07-28T00:00:37;34.00;32.74;36.58;;
41704;Laerm;861;48.808;9.006;2023-07-28T00:03:03;33.99;32.84;35.30;;
41704;Laerm;861;48.808;9.006;2023-07-28T00:05:30;33.99;32.74;35.09;;
41704;Laerm;861;48.808;9.006;2023-07-28T00:07:56;33.98;32.68;35.35;;
41704;Laerm;861;48.808;9.006;2023-07-28T00:10:23;33.99;32.50;35.41;;
41704;Laerm;861;48.808;9.006;2023-07-28T00:12:50;33.99;32.86;35.37;;
41704;Laerm;861;48.808;9.006;2023-07-28T00:15:17;33.99;32.72;35.20;;
41704;Laerm;861;48.808;9.006;2023-07-28T00:17:43;34.01;32.76;35.29;;
41704;Laerm;861;48.808;9.006;2023-07-28T00:20:11;34.00;32.57;35.23;;
41704;Laerm;861;48.808;9.006;2023-07-28T00:22:38;34.02;32.86;35.20;;
41704;Laerm;861;48.808;9.006;2023-07-28T00:25:05;34.03;32.72;35.31;;
41704;Laerm;861;48.808;9.006;2023-07-28T00:27:32;34.02;32.47;35.41;;
41704;Laerm;861;48.808;9.006;2023-07-28T00:29:58;34.02;32.72;35.14;;
41704;Laerm;861;48.808;9.006;2023-07-28T00:32:24;34.03;32.69;35.20;;
41704;Laerm;861;48.808;9.006;2023-07-28T00:34:51;34.05;32.79;35.34;;
41704;Laerm;861;48.808;9.006;2023-07-28T00:37:17;34.01;32.48;35.49;;
41704;Laerm;861;48.808;9.006;2023-07-28T00:39:45;34.01;32.74;35.27;;
41704;Laerm;861;48.808;9.006;2023-07-28T00:42:11;34.02;32.77;35.44;;
41704;Laerm;861;48.808;9.006;2023-07-28T00:44:38;34.05;32.70;35.15;;
41704;Laerm;861;48.808;9.006;2023-07-28T00:47:05;34.08;32.78;35.20;;
41704;Laerm;861;48.808;9.006;2023-07-28T00:49:33;34.13;32.66;35.36;;
41704;Laerm;861;48.808;9.006;2023-07-28T00:52:00;34.14;32.70;35.42;;
41704;Laerm;861;48.808;9.006;2023-07-28T00:54:27;34.15;32.86;35.51;;
41704;Laerm;861;48.808;9.006;2023-07-28T00:56:53;34.15;32.68;35.40;;
41704;Laerm;861;48.808;9.006;2023-07-28T00:59:21;34.15;32.70;35.43;;
41704;Laerm;861;48.808;9.006;2023-07-28T01:01:48;34.15;32.92;35.42;;
41704;Laerm;861;48.808;9.006;2023-07-28T01:04:14;34.15;32.60;35.68;;
41704;Laerm;861;48.808;9.006;2023-07-28T01:06:58;34.15;32.77;35.35;;
41704;Laerm;861;48.808;9.006;2023-07-28T01:10:01;34.16;32.85;35.56;;
41704;Laerm;861;48.808;9.006;2023-07-28T01:12:29;34.15;32.75;35.35;;
41704;Laerm;861;48.808;9.006;2023-07-28T01:14:57;34.16;32.85;35.30;;
41704;Laerm;861;48.808;9.006;2023-07-28T01:17:24;34.16;32.97;35.27;;
41704;Laerm;861;48.808;9.006;2023-07-28T01:19:52;34.16;32.91;35.30;;
41704;Laerm;861;48.808;9.006;2023-07-28T01:26:05;34.13;32.81;35.51;;
41704;Laerm;861;48.808;9.006;2023-07-28T01:28:37;34.13;32.91;40.00;;
41704;Laerm;861;48.808;9.006;2023-07-28T01:31:08;34.11;32.91;35.38;;
41704;Laerm;861;48.808;9.006;2023-07-28T01:33:35;34.13;32.89;35.25;;
41704;Laerm;861;48.808;9.006;2023-07-28T01:36:03;34.13;32.64;35.26;;
41704;Laerm;861;48.808;9.006;2023-07-28T01:38:30;34.12;32.87;35.36;;
41704;Laerm;861;48.808;9.006;2023-07-28T01:40:56;34.12;32.76;35.31;;
41704;Laerm;861;48.808;9.006;2023-07-28T01:43:23;34.13;32.63;35.49;;
41704;Laerm;861;48.808;9.006;2023-07-28T01:45:50;34.12;32.90;35.19;;
41704;Laerm;861;48.808;9.006;2023-07-28T01:48:16;34.11;32.85;35.39;;
41704;Laerm;861;48.808;9.006;2023-07-28T01:50:43;34.11;32.69;35.36;;
41704;Laerm;861;48.808;9.006;2023-07-28T01:53:09;34.10;32.81;35.39;;
41704;Laerm;861;48.808;9.006;2023-07-28T01:55:36;34.10;33.04;35.60;;
41704;Laerm;861;48.808;9.006;2023-07-28T01:58:02;34.10;32.98;35.22;;
41704;Laerm;861;48.808;9.006;2023-07-28T02:00:29;34.08;32.87;35.34;;
41704;Laerm;861;48.808;9.006;2023-07-28T02:02:56;34.09;32.90;35.32;;
41704;Laerm;861;48.808;9.006;2023-07-28T02:05:24;34.13;32.82;35.49;;
41704;Laerm;861;48.808;9.006;2023-07-28T02:07:51;34.15;32.75;35.36;;
41704;Laerm;861;48.808;9.006;2023-07-28T02:10:17;34.16;32.96;35.28;;
41704;Laerm;861;48.808;9.006;2023-07-28T02:12:44;34.15;32.92;35.33;;
41704;Laerm;861;48.808;9.006;2023-07-28T02:15:13;34.15;32.83;35.35;;
41704;Laerm;861;48.808;9.006;2023-07-28T02:17:40;34.14;32.74;35.41;;
41704;Laerm;861;48.808;9.006;2023-07-28T02:20:08;34.14;32.78;35.72;;
41704;Laerm;861;48.808;9.006;2023-07-28T02:22:39;34.12;32.60;35.35;;
41704;Laerm;861;48.808;9.006;2023-07-28T02:25:07;34.13;32.72;35.41;;
41704;Laerm;861;48.808;9.006;2023-07-28T02:27:33;34.13;32.71;35.33;;
41704;Laerm;861;48.808;9.006;2023-07-28T02:30:00;34.13;32.95;35.25;;
41704;Laerm;861;48.808;9.006;2023-07-28T02:32:30;34.12;32.82;35.40;;
41704;Laerm;861;48.808;9.006;2023-07-28T02:34:56;34.12;32.77;35.61;;
41704;Laerm;861;48.808;9.006;2023-07-28T02:37:24;34.13;32.78;35.32;;
41704;Laerm;861;48.808;9.006;2023-07-28T02:39:51;34.13;32.76;35.39;;
41704;Laerm;861;48.808;9.006;2023-07-28T02:42:17;34.13;32.66;35.43;;
41704;Laerm;861;48.808;9.006;2023-07-28T02:44:44;34.14;32.70;35.24;;
41704;Laerm;861;48.808;9.006;2023-07-28T02:47:11;34.15;32.89;35.26;;
41704;Laerm;861;48.808;9.006;2023-07-28T02:49:37;34.18;32.75;35.33;;
41704;Laerm;861;48.808;9.006;2023-07-28T02:52:04;34.20;33.06;35.42;;
41704;Laerm;861;48.808;9.006;2023-07-28T02:54:31;34.20;32.96;35.57;;
41704;Laerm;861;48.808;9.006;2023-07-28T02:56:57;34.22;32.96;35.51;;
41704;Laerm;861;48.808;9.006;2023-07-28T02:59:24;34.19;32.55;35.48;;
41704;Laerm;861;48.808;9.006;2023-07-28T03:01:51;34.19;32.85;35.30;;
41704;Laerm;861;48.808;9.006;2023-07-28T03:04:19;34.18;32.98;35.44;;
41704;Laerm;861;48.808;9.006;2023-07-28T03:06:48;34.18;32.80;35.32;;
41704;Laerm;861;48.808;9.006;2023-07-28T03:09:15;34.18;32.86;35.40;;
41704;Laerm;861;48.808;9.006;2023-07-28T03:11:43;34.18;32.95;35.49;;
41704;Laerm;861;48.808;9.006;2023-07-28T03:14:11;34.18;33.05;35.39;;
41704;Laerm;861;48.808;9.006;2023-07-28T03:16:40;34.19;32.94;35.35;;
41704;Laerm;861;48.808;9.006;2023-07-28T03:19:07;34.21;32.84;35.51;;
41704;Laerm;861;48.808;9.006;2023-07-28T03:21:34;34.22;33.01;35.52;;
41704;Laerm;861;48.808;9.006;2023-07-28T03:24:00;34.22;32.95;35.50;;
41704;Laerm;861;48.808;9.006;2023-07-28T03:26:27;34.23;32.87;35.45;;
41704;Laerm;861;48.808;9.006;2023-07-28T03:28:53;34.22;32.76;35.48;;
41704;Laerm;861;48.808;9.006;2023-07-28T03:31:20;34.23;32.29;35.53;;
41704;Laerm;861;48.808;9.006;2023-07-28T03:33:47;34.22;33.05;35.63;;
41704;Laerm;861;48.808;9.006;2023-07-28T03:36:13;34.22;32.90;35.39;;
41704;Laerm;861;48.808;9.006;2023-07-28T03:38:40;34.23;33.05;35.43;;
41704;Laerm;861;48.808;9.006;2023-07-28T03:41:06;34.23;32.58;35.30;;
41704;Laerm;861;48.808;9.006;2023-07-28T03:43:33;34.24;32.88;35.38;;
41704;Laerm;861;48.808;9.006;2023-07-28T03:46:00;34.25;32.80;35.33;;
41704;Laerm;861;48.808;9.006;2023-07-28T03:48:27;34.24;32.99;35.46;;
41704;Laerm;861;48.808;9.006;2023-07-28T03:50:53;34.25;33.04;35.56;;
41704;Laerm;861;48.808;9.006;2023-07-28T03:53:20;34.25;33.08;35.45;;
41704;Laerm;861;48.808;9.006;2023-07-28T03:55:46;34.25;32.90;35.62;;
41704;Laerm;861;48.808;9.006;2023-07-28T03:58:13;34.27;32.73;35.42;;
41704;Laerm;861;48.808;9.006;2023-07-28T04:00:39;34.29;33.07;35.62;;
41704;Laerm;861;48.808;9.006;2023-07-28T04:03:06;34.28;33.06;35.73;;
41704;Laerm;861;48.808;9.006;2023-07-28T04:05:32;34.30;32.99;35.64;;
41704;Laerm;861;48.808;9.006;2023-07-28T04:07:59;34.28;32.96;35.55;;
41704;Laerm;861;48.808;9.006;2023-07-28T04:10:25;34.28;33.02;35.63;;
41704;Laerm;861;48.808;9.006;2023-07-28T04:12:52;34.27;33.07;35.49;;
41704;Laerm;861;48.808;9.006;2023-07-28T04:15:18;34.27;32.90;35.56;;
41704;Laerm;861;48.808;9.006;2023-07-28T04:17:45;34.27;32.90;35.64;;
41704;Laerm;861;48.808;9.006;2023-07-28T04:20:12;34.26;33.00;35.31;;
41704;Laerm;861;48.808;9.006;2023-07-28T04:22:38;34.26;33.00;35.39;;
41704;Laerm;861;48.808;9.006;2023-07-28T04:25:06;34.27;32.98;35.44;;
41704;Laerm;861;48.808;9.006;2023-07-28T04:27:32;34.25;33.11;35.62;;
41704;Laerm;861;48.808;9.006;2023-07-28T04:29:59;34.27;32.86;35.65;;
41704;Laerm;861;48.808;9.006;2023-07-28T04:32:26;34.24;32.92;35.53;;
41704;Laerm;861;48.808;9.006;2023-07-28T04:34:53;34.22;32.81;43.01;;
41704;Laerm;861;48.808;9.006;2023-07-28T04:37:20;34.18;32.93;35.41;;
41704;Laerm;861;48.808;9.006;2023-07-28T04:39:46;34.14;32.89;35.94;;
41704;Laerm;861;48.808;9.006;2023-07-28T04:42:13;34.10;32.77;35.37;;
41704;Laerm;861;48.808;9.006;2023-07-28T04:44:39;34.07;32.67;35.16;;
41704;Laerm;861;48.808;9.006;2023-07-28T04:47:07;34.07;32.75;35.24;;
41704;Laerm;861;48.808;9.006;2023-07-28T04:49:33;34.07;32.91;35.17;;
41704;Laerm;861;48.808;9.006;2023-07-28T04:52:00;34.08;32.89;35.30;;
41704;Laerm;861;48.808;9.006;2023-07-28T04:54:27;34.05;32.79;44.33;;
41704;Laerm;861;48.808;9.006;2023-07-28T04:56:53;34.01;32.41;35.23;;
41704;Laerm;861;48.808;9.006;2023-07-28T04:59:20;34.02;32.74;35.19;;
41704;Laerm;861;48.808;9.006;2023-07-28T05:01:46;34.02;32.42;35.45;;
41704;Laerm;861;48.808;9.006;2023-07-28T05:04:13;34.05;32.82;35.22;;
41704;Laerm;861;48.808;9.006;2023-07-28T05:06:39;34.05;32.67;35.21;;
41704;Laerm;861;48.808;9.006;2023-07-28T05:09:06;34.04;32.80;35.29;;
41704;Laerm;861;48.808;9.006;2023-07-28T05:11:32;34.06;32.56;35.27;;
41704;Laerm;861;48.808;9.006;2023-07-28T05:13:59;34.04;32.64;35.31;;
41704;Laerm;861;48.808;9.006;2023-07-28T05:16:25;34.00;32.65;36.56;;
41704;Laerm;861;48.808;9.006;2023-07-28T05:18:52;34.22;32.66;58.55;;
41704;Laerm;861;48.808;9.006;2023-07-28T05:21:18;33.83;32.37;34.94;;
41704;Laerm;861;48.808;9.006;2023-07-28T05:23:45;33.74;32.37;35.15;;
41704;Laerm;861;48.808;9.006;2023-07-28T05:26:11;33.64;32.30;34.70;;
41704;Laerm;861;48.808;9.006;2023-07-28T05:28:38;33.58;32.23;36.77;;
41704;Laerm;861;48.808;9.006;2023-07-28T05:31:08;33.52;32.10;34.65;;
41704;Laerm;861;48.808;9.006;2023-07-28T05:33:34;33.50;32.12;46.84;;
41704;Laerm;861;48.808;9.006;2023-07-28T05:36:04;33.46;32.29;34.66;;
41704;Laerm;861;48.808;9.006;2023-07-28T05:38:31;33.45;32.19;34.72;;
41704;Laerm;861;48.808;9.006;2023-07-28T05:41:04;33.43;32.19;34.53;;
41704;Laerm;861;48.808;9.006;2023-07-28T05:43:32;33.38;32.26;34.65;;
41704;Laerm;861;48.808;9.006;2023-07-28T05:46:01;33.37;31.94;34.66;;
41704;Laerm;861;48.808;9.006;2023-07-28T05:48:28;33.35;32.16;36.83;;
41704;Laerm;861;48.808;9.006;2023-07-28T05:50:54;33.36;31.98;37.97;;
41704;Laerm;861;48.808;9.006;2023-07-28T05:53:24;33.32;31.90;34.69;;
41704;Laerm;861;48.808;9.006;2023-07-28T05:55:50;33.30;32.09;34.60;;
41704;Laerm;861;48.808;9.006;2023-07-28T05:58:17;33.28;32.11;34.59;;
41704;Laerm;861;48.808;9.006;2023-07-28T06:00:43;33.27;32.02;34.43;;
41704;Laerm;861;48.808;9.006;2023-07-28T06:03:13;33.29;31.53;34.53;;
41704;Laerm;861;48.808;9.006;2023-07-28T06:05:42;33.27;32.07;34.60;;
41704;Laerm;861;48.808;9.006;2023-07-28T06:08:09;33.27;32.01;34.50;;
41704;Laerm;861;48.808;9.006;2023-07-28T06:10:37;33.28;32.00;34.48;;
41704;Laerm;861;48.808;9.006;2023-07-28T06:13:04;33.27;31.97;37.43;;
41704;Laerm;861;48.808;9.006;2023-07-28T06:15:30;33.25;32.00;34.59;;
41704;Laerm;861;48.808;9.006;2023-07-28T06:17:57;33.28;32.14;34.44;;
41704;Laerm;861;48.808;9.006;2023-07-28T06:20:23;33.29;31.97;34.80;;
41704;Laerm;861;48.808;9.006;2023-07-28T06:22:50;33.24;31.92;34.69;;
41704;Laerm;861;48.808;9.006;2023-07-28T06:25:17;33.23;31.96;34.36;;
41704;Laerm;861;48.808;9.006;2023-07-28T06:27:43;33.23;32.00;34.40;;
41704;Laerm;861;48.808;9.006;2023-07-28T06:30:10;33.26;31.94;34.55;;
41704;Laerm;861;48.808;9.006;2023-07-28T06:32:37;33.27;31.86;34.56;;
41704;Laerm;861;48.808;9.006;2023-07-28T06:35:05;33.30;32.01;34.83;;
41704;Laerm;861;48.808;9.006;2023-07-28T06:37:35;33.31;31.97;34.41;;
41704;Laerm;861;48.808;9.006;2023-07-28T06:40:02;33.33;32.01;34.37;;
41704;Laerm;861;48.808;9.006;2023-07-28T06:42:29;33.33;32.08;34.64;;
41704;Laerm;861;48.808;9.006;2023-07-28T06:44:55;33.36;31.91;34.46;;
41704;Laerm;861;48.808;9.006;2023-07-28T06:47:23;33.41;31.99;34.64;;
41704;Laerm;861;48.808;9.006;2023-07-28T06:49:49;33.48;32.25;34.68;;
41704;Laerm;861;48.808;9.006;2023-07-28T06:52:16;33.55;32.20;34.93;;
41704;Laerm;861;48.808;9.006;2023-07-28T06:54:43;33.57;32.22;34.86;;
41704;Laerm;861;48.808;9.006;2023-07-28T06:57:09;33.58;32.19;34.72;;
41704;Laerm;861;48.808;9.006;2023-07-28T06:59:36;33.60;32.10;34.70;;
41704;Laerm;861;48.808;9.006;2023-07-28T07:02:02;33.59;32.25;34.94;;
41704;Laerm;861;48.808;9.006;2023-07-28T07:04:29;33.62;32.11;34.82;;
41704;Laerm;861;48.808;9.006;2023-07-28T07:06:56;33.72;32.44;35.01;;
41704;Laerm;861;48.808;9.006;2023-07-28T07:09:22;33.74;32.45;34.82;;
41704;Laerm;861;48.808;9.006;2023-07-28T07:11:49;33.78;32.38;35.05;;
41704;Laerm;861;48.808;9.006;2023-07-28T07:14:15;33.85;32.64;35.09;;
41704;Laerm;861;48.808;9.006;2023-07-28T07:16:42;33.91;32.14;35.19;;
41704;Laerm;861;48.808;9.006;2023-07-28T07:19:09;34.07;32.82;35.38;;
41704;Laerm;861;48.808;9.006;2023-07-28T07:21:36;34.12;32.88;35.39;;
41704;Laerm;861;48.808;9.006;2023-07-28T07:24:04;34.14;32.92;35.38;;
41704;Laerm;861;48.808;9.006;2023-07-28T07:26:31;34.20;32.89;35.55;;
41704;Laerm;861;48.808;9.006;2023-07-28T07:28:58;34.25;32.94;35.46;;
41704;Laerm;861;48.808;9.006;2023-07-28T07:31:24;34.29;33.02;35.59;;
41704;Laerm;861;48.808;9.006;2023-07-28T07:33:51;34.35;33.08;35.73;;
41704;Laerm;861;48.808;9.006;2023-07-28T07:36:20;34.39;33.16;35.49;;
41704;Laerm;861;48.808;9.006;2023-07-28T07:38:47;34.39;33.15;35.52;;
41704;Laerm;861;48.808;9.006;2023-07-28T07:41:16;34.40;33.01;35.54;;
41704;Laerm;861;48.808;9.006;2023-07-28T07:43:53;34.39;33.09;35.54;;
41704;Laerm;861;48.808;9.006;2023-07-28T07:46:20;34.42;33.25;35.58;;
41704;Laerm;861;48.808;9.006;2023-07-28T07:48:47;34.44;33.12;35.61;;
41704;Laerm;861;48.808;9.006;2023-07-28T07:51:14;34.42;32.89;35.50;;
41704;Laerm;861;48.808;9.006;2023-07-28T07:53:41;34.43;33.06;35.57;;
41704;Laerm;861;48.808;9.006;2023-07-28T07:56:09;34.41;33.08;35.68;;
41704;Laerm;861;48.808;9.006;2023-07-28T07:58:36;34.43;32.99;35.54;;
41704;Laerm;861;48.808;9.006;2023-07-28T08:01:03;34.45;33.03;35.68;;
41704;Laerm;861;48.808;9.006;2023-07-28T08:03:30;34.46;33.07;35.68;;
41704;Laerm;861;48.808;9.006;2023-07-28T08:05:58;34.47;33.08;35.58;;
41704;Laerm;861;48.808;9.006;2023-07-28T08:08:25;34.42;33.10;35.54;;
41704;Laerm;861;48.808;9.006;2023-07-28T08:10:54;34.43;33.18;35.73;;
41704;Laerm;861;48.808;9.006;2023-07-28T08:13:20;34.45;33.07;35.51;;
41704;Laerm;861;48.808;9.006;2023-07-28T08:15:49;34.47;33.22;35.63;;
41704;Laerm;861;48.808;9.006;2023-07-28T08:18:15;34.52;33.30;35.93;;
41704;Laerm;861;48.808;9.006;2023-07-28T08:20:42;34.57;33.28;36.15;;
41704;Laerm;861;48.808;9.006;2023-07-28T08:23:09;34.55;33.38;38.44;;
41704;Laerm;861;48.808;9.006;2023-07-28T08:25:37;34.60;33.25;35.76;;
41704;Laerm;861;48.808;9.006;2023-07-28T08:28:04;34.63;33.33;35.74;;
41704;Laerm;861;48.808;9.006;2023-07-28T08:30:31;34.57;33.12;38.39;;
41704;Laerm;861;48.808;9.006;2023-07-28T08:32:58;34.56;33.19;35.81;;
41704;Laerm;861;48.808;9.006;2023-07-28T08:35:25;34.65;33.24;36.11;;
41704;Laerm;861;48.808;9.006;2023-07-28T08:37:51;34.60;33.18;36.08;;
41704;Laerm;861;48.808;9.006;2023-07-28T08:40:18;34.73;33.47;35.96;;
41704;Laerm;861;48.808;9.006;2023-07-28T08:42:46;34.65;33.15;36.60;;
41704;Laerm;861;48.808;9.006;2023-07-28T08:45:13;34.71;33.51;35.88;;
41704;Laerm;861;48.808;9.006;2023-07-28T08:47:40;34.75;33.43;37.33;;
41704;Laerm;861;48.808;9.006;2023-07-28T08:50:07;34.78;33.57;35.93;;
41704;Laerm;861;48.808;9.006;2023-07-28T08:52:34;34.77;33.24;35.87;;
41704;Laerm;861;48.808;9.006;2023-07-28T08:55:00;34.73;33.57;36.06;;
41704;Laerm;861;48.808;9.006;2023-07-28T08:57:28;34.89;33.47;36.00;;
41704;Laerm;861;48.808;9.006;2023-07-28T08:59:56;34.82;33.55;36.07;;
41704;Laerm;861;48.808;9.006;2023-07-28T09:02:22;34.78;33.43;35.90;;
41704;Laerm;861;48.808;9.006;2023-07-28T09:04:50;34.86;33.22;36.23;;
41704;Laerm;861;48.808;9.006;2023-07-28T09:07:16;34.91;33.43;36.14;;
41704;Laerm;861;48.808;9.006;2023-07-28T09:09:43;34.95;33.72;37.26;;
41704;Laerm;861;48.808;9.006;2023-07-28T09:12:10;35.01;33.81;36.26;;
41704;Laerm;861;48.808;9.006;2023-07-28T09:14:39;34.96;33.50;36.35;;
41704;Laerm;861;48.808;9.006;2023-07-28T09:17:13;35.06;33.77;36.19;;
41704;Laerm;861;48.808;9.006;2023-07-28T09:19:56;35.17;33.81;36.59;;
41704;Laerm;861;48.808;9.006;2023-07-28T09:22:24;35.25;34.05;36.47;;
41704;Laerm;861;48.808;9.006;2023-07-28T09:24:52;35.30;33.77;36.48;;
41704;Laerm;861;48.808;9.006;2023-07-28T09:27:26;35.36;34.22;36.83;;
41704;Laerm;861;48.808;9.006;2023-07-28T09:29:56;35.38;33.83;36.69;;
41704;Laerm;861;48.808;9.006;2023-07-28T09:32:32;35.44;34.09;40.10;;
41704;Laerm;861;48.808;9.006;2023-07-28T09:35:14;35.47;34.09;38.40;;
41704;Laerm;861;48.808;9.006;2023-07-28T09:37:46;35.47;34.30;36.68;;
41704;Laerm;861;48.808;9.006;2023-07-28T09:40:19;35.47;33.91;39.56;;
41704;Laerm;861;48.808;9.006;2023-07-28T09:42:49;35.46;34.09;36.70;;
41704;Laerm;861;48.808;9.006;2023-07-28T09:45:19;35.46;34.00;38.79;;
41704;Laerm;861;48.808;9.006;2023-07-28T09:47:51;35.49;34.10;41.01;;
41704;Laerm;861;48.808;9.006;2023-07-28T09:50:26;35.52;34.17;39.55;;
41704;Laerm;861;48.808;9.006;2023-07-28T09:53:03;35.50;34.16;37.53;;
41704;Laerm;861;48.808;9.006;2023-07-28T09:55:32;35.47;34.22;36.58;;
41704;Laerm;861;48.808;9.006;2023-07-28T09:58:09;35.48;33.93;41.89;;
41704;Laerm;861;48.808;9.006;2023-07-28T10:00:36;35.49;34.21;37.86;;
41704;Laerm;861;48.808;9.006;2023-07-28T10:03:04;35.51;34.29;36.91;;
41704;Laerm;861;48.808;9.006;2023-07-28T10:05:34;35.49;34.33;36.68;;
41704;Laerm;861;48.808;9.006;2023-07-28T10:08:03;35.48;34.20;36.99;;
41704;Laerm;861;48.808;9.006;2023-07-28T10:10:32;35.45;33.90;36.64;;
41704;Laerm;861;48.808;9.006;2023-07-28T10:13:00;35.44;34.11;36.72;;
41704;Laerm;861;48.808;9.006;2023-07-28T10:15:32;35.43;34.17;36.61;;
41704;Laerm;861;48.808;9.006;2023-07-28T10:18:00;35.45;34.07;36.75;;
41704;Laerm;861;48.808;9.006;2023-07-28T10:20:37;35.45;34.12;36.63;;
41704;Laerm;861;48.808;9.006;2023-07-28T10:23:22;35.43;34.24;36.52;;
41704;Laerm;861;48.808;9.006;2023-07-28T10:25:59;35.43;33.84;36.83;;
41704;Laerm;861;48.808;9.006;2023-07-28T10:28:34;35.41;34.08;36.87;;
41704;Laerm;861;48.808;9.006;2023-07-28T10:31:09;35.39;34.19;36.52;;
41704;Laerm;861;48.808;9.006;2023-07-28T10:33:44;35.39;34.03;36.61;;
41704;Laerm;861;48.808;9.006;2023-07-28T10:36:33;35.40;34.05;36.61;;
41704;Laerm;861;48.808;9.006;2023-07-28T10:39:14;35.39;34.18;36.66;;
41704;Laerm;861;48.808;9.006;2023-07-28T10:42:08;35.43;33.91;37.07;;
41704;Laerm;861;48.808;9.006;2023-07-28T10:44:37;35.42;34.17;36.59;;
41704;Laerm;861;48.808;9.006;2023-07-28T10:47:10;35.43;34.17;36.59;;
41704;Laerm;861;48.808;9.006;2023-07-28T10:49:37;35.41;34.08;36.52;;
41704;Laerm;861;48.808;9.006;2023-07-28T10:52:03;35.41;34.17;36.77;;
41704;Laerm;861;48.808;9.006;2023-07-28T10:58:34;35.49;34.19;36.77;;
41704;Laerm;861;48.808;9.006;2023-07-28T11:01:03;35.57;34.15;36.74;;
41704;Laerm;861;48.808;9.006;2023-07-28T11:03:30;35.59;34.01;36.81;;
41704;Laerm;861;48.808;9.006;2023-07-28T11:05:57;35.62;34.35;36.94;;
41704;Laerm;861;48.808;9.006;2023-07-28T11:08:24;35.60;34.27;36.66;;
41704;Laerm;861;48.808;9.006;2023-07-28T11:10:51;35.61;34.25;36.80;;
41704;Laerm;861;48.808;9.006;2023-07-28T11:13:18;35.64;34.45;37.75;;
41704;Laerm;861;48.808;9.006;2023-07-28T11:15:45;35.63;34.20;36.77;;
41704;Laerm;861;48.808;9.006;2023-07-28T11:18:15;35.59;34.30;36.74;;
41704;Laerm;861;48.808;9.006;2023-07-28T11:20:42;35.58;34.30;36.66;;
41704;Laerm;861;48.808;9.006;2023-07-28T11:23:09;35.54;33.99;36.76;;
41704;Laerm;861;48.808;9.006;2023-07-28T11:25:37;35.58;34.42;36.70;;
41704;Laerm;861;48.808;9.006;2023-07-28T11:28:05;35.64;34.32;36.95;;
41704;Laerm;861;48.808;9.006;2023-07-28T11:30:36;35.64;34.45;36.68;;
41704;Laerm;861;48.808;9.006;2023-07-28T11:33:10;35.63;34.40;36.91;;
41704;Laerm;861;48.808;9.006;2023-07-28T11:35:39;35.65;34.35;36.93;;
41704;Laerm;861;48.808;9.006;2023-07-28T11:38:08;35.64;34.21;36.81;;
41704;Laerm;861;48.808;9.006;2023-07-28T11:40:37;35.64;34.38;36.84;;
41704;Laerm;861;48.808;9.006;2023-07-28T11:43:05;35.63;34.28;36.76;;
41704;Laerm;861;48.808;9.006;2023-07-28T11:45:32;35.66;34.27;36.95;;
41704;Laerm;861;48.808;9.006;2023-07-28T11:48:06;35.61;34.28;36.74;;
41704;Laerm;861;48.808;9.006;2023-07-28T11:50:41;35.38;34.20;36.62;;
41704;Laerm;861;48.808;9.006;2023-07-28T11:53:09;34.91;33.55;36.54;;
41704;Laerm;861;48.808;9.006;2023-07-28T11:55:38;34.47;33.07;51.43;;
41704;Laerm;861;48.808;9.006;2023-07-28T11:58:08;34.35;32.91;51.16;;
41704;Laerm;861;48.808;9.006;2023-07-28T12:00:40;34.32;32.96;49.09;;
41704;Laerm;861;48.808;9.006;2023-07-28T12:03:12;34.33;32.94;35.68;;
41704;Laerm;861;48.808;9.006;2023-07-28T12:05:59;34.36;32.92;36.35;;
41704;Laerm;861;48.808;9.006;2023-07-28T12:08:38;34.42;33.05;53.86;;
41704;Laerm;861;48.808;9.006;2023-07-28T12:11:11;34.52;33.10;53.75;;
41704;Laerm;861;48.808;9.006;2023-07-28T12:13:52;34.34;33.01;35.97;;
41704;Laerm;861;48.808;9.006;2023-07-28T12:16:47;34.36;33.06;36.23;;
41704;Laerm;861;48.808;9.006;2023-07-28T12:19:14;34.40;33.19;35.62;;
41704;Laerm;861;48.808;9.006;2023-07-28T12:21:40;34.42;33.23;35.79;;
41704;Laerm;861;48.808;9.006;2023-07-28T12:24:07;34.41;33.19;37.02;;
41704;Laerm;861;48.808;9.006;2023-07-28T12:26:34;34.40;32.92;35.57;;
41704;Laerm;861;48.808;9.006;2023-07-28T12:29:00;34.42;33.26;35.63;;
41704;Laerm;861;48.808;9.006;2023-07-28T12:31:27;34.49;33.27;38.57;;
41704;Laerm;861;48.808;9.006;2023-07-28T12:33:55;34.51;33.12;35.75;;
41704;Laerm;861;48.808;9.006;2023-07-28T12:36:23;34.60;33.15;35.90;;
41704;Laerm;861;48.808;9.006;2023-07-28T12:38:49;34.71;33.12;35.96;;
41704;Laerm;861;48.808;9.006;2023-07-28T12:41:16;34.81;33.46;36.08;;
41704;Laerm;861;48.808;9.006;2023-07-28T12:43:42;34.72;33.29;35.94;;
41704;Laerm;861;48.808;9.006;2023-07-28T12:46:09;34.88;33.51;36.22;;
41704;Laerm;861;48.808;9.006;2023-07-28T12:52:37;34.71;33.45;35.91;;
41704;Laerm;861;48.808;9.006;2023-07-28T12:55:04;34.68;33.30;38.17;;
41704;Laerm;861;48.808;9.006;2023-07-28T12:57:32;34.72;33.41;35.99;;
41704;Laerm;861;48.808;9.006;2023-07-28T12:59:59;34.68;33.34;35.79;;
41704;Laerm;861;48.808;9.006;2023-07-28T13:02:25;34.58;33.28;35.71;;
41704;Laerm;861;48.808;9.006;2023-07-28T13:04:52;34.47;33.25;37.78;;
41704;Laerm;861;48.808;9.006;2023-07-28T13:07:18;34.34;32.89;45.10;;
41704;Laerm;861;48.808;9.006;2023-07-28T13:09:45;34.32;33.20;50.52;;
41704;Laerm;861;48.808;9.006;2023-07-28T13:12:12;34.25;33.11;36.59;;
41704;Laerm;861;48.808;9.006;2023-07-28T13:14:38;34.25;32.88;35.66;;
41704;Laerm;861;48.808;9.006;2023-07-28T13:17:05;34.26;32.87;35.73;;
41704;Laerm;861;48.808;9.006;2023-07-28T13:19:31;34.25;32.49;35.45;;
41704;Laerm;861;48.808;9.006;2023-07-28T13:21:58;34.22;32.93;35.51;;
41704;Laerm;861;48.808;9.006;2023-07-28T13:24:24;34.20;32.81;35.64;;
41704;Laerm;861;48.808;9.006;2023-07-28T13:26:51;34.22;32.99;36.29;;
41704;Laerm;861;48.808;9.006;2023-07-28T13:29:17;34.23;32.89;36.05;;
41704;Laerm;861;48.808;9.006;2023-07-28T13:31:44;34.20;32.68;35.49;;
41704;Laerm;861;48.808;9.006;2023-07-28T13:34:11;34.17;32.75;35.44;;
41704;Laerm;861;48.808;9.006;2023-07-28T13:36:37;34.30;32.79;57.72;;
41704;Laerm;861;48.808;9.006;2023-07-28T13:39:04;33.79;32.48;43.45;;
41704;Laerm;861;48.808;9.006;2023-07-28T13:41:30;33.62;32.37;46.39;;
41704;Laerm;861;48.808;9.006;2023-07-28T13:43:57;33.54;31.97;38.79;;
41704;Laerm;861;48.808;9.006;2023-07-28T13:46:23;33.42;32.22;39.00;;
41704;Laerm;861;48.808;9.006;2023-07-28T13:48:50;33.32;31.90;52.22;;
41704;Laerm;861;48.808;9.006;2023-07-28T13:51:16;33.19;31.57;52.65;;
41704;Laerm;861;48.808;9.006;2023-07-28T13:53:43;33.05;31.47;50.91;;
41704;Laerm;861;48.808;9.006;2023-07-28T13:56:09;32.87;31.43;40.53;;
41704;Laerm;861;48.808;9.006;2023-07-28T13:58:36;32.82;31.55;41.28;;
41704;Laerm;861;48.808;9.006;2023-07-28T14:01:04;32.78;31.41;34.33;;
41704;Laerm;861;48.808;9.006;2023-07-28T14:03:30;32.68;31.39;35.20;;
41704;Laerm;861;48.808;9.006;2023-07-28T14:05:57;45.33;31.21;81.33;;
41704;Laerm;861;48.808;9.006;2023-07-28T14:08:24;32.53;31.38;33.82;;
41704;Laerm;861;48.808;9.006;2023-07-28T14:10:53;32.46;31.25;35.85;;
41704;Laerm;861;48.808;9.006;2023-07-28T14:13:19;32.43;30.89;37.55;;
41704;Laerm;861;48.808;9.006;2023-07-28T14:15:46;32.40;31.05;33.73;;
41704;Laerm;861;48.808;9.006;2023-07-28T14:18:12;32.34;30.99;33.56;;
41704;Laerm;861;48.808;9.006;2023-07-28T14:20:39;32.26;31.02;33.81;;
41704;Laerm;861;48.808;9.006;2023-07-28T14:23:27;32.21;30.88;37.85;;
41704;Laerm;861;48.808;9.006;2023-07-28T14:25:55;32.15;30.74;42.83;;